createdAt,value
2018-08-10T00:00:03.274Z,97363
2018-08-10T00:01:19.220Z,97362
2018-08-10T00:02:35.098Z,97363
2018-08-10T00:03:51.014Z,97367
2018-08-10T00:05:06.944Z,97365
2018-08-10T00:06:22.819Z,97371
2018-08-10T00:07:38.841Z,97369
2018-08-10T00:08:54.753Z,97366
2018-08-10T00:10:10.606Z,97365
2018-08-10T00:11:26.473Z,97369
2018-08-10T00:12:42.468Z,97373
2018-08-10T00:13:58.328Z,97371
2018-08-10T00:15:15.348Z,97369
2018-08-10T00:16:32.203Z,97374
2018-08-10T00:17:48.112Z,97374
2018-08-10T00:19:03.977Z,97371
2018-08-10T00:20:20.014Z,97376
2018-08-10T00:21:35.928Z,97378
2018-08-10T00:22:51.813Z,97381
2018-08-10T00:24:07.680Z,97380
2018-08-10T00:25:23.557Z,97385
2018-08-10T00:26:39.419Z,97381
2018-08-10T00:27:55.344Z,97377
2018-08-10T00:29:11.217Z,97381
2018-08-10T00:30:27.088Z,97375
2018-08-10T00:31:43.001Z,97380
2018-08-10T00:32:58.889Z,97384
2018-08-10T00:34:14.936Z,97386
2018-08-10T00:35:30.852Z,97380
2018-08-10T00:36:46.720Z,97387
2018-08-10T00:38:02.664Z,97389
2018-08-10T00:39:18.537Z,97392
2018-08-10T00:40:34.426Z,97388
2018-08-10T00:41:50.280Z,97395
2018-08-10T00:43:06.127Z,97392
2018-08-10T00:44:22.010Z,97398
2018-08-10T00:45:37.916Z,97393
2018-08-10T00:46:53.809Z,97391
2018-08-10T00:48:09.680Z,97392
2018-08-10T00:49:25.579Z,97396
2018-08-10T00:50:41.533Z,97396
2018-08-10T00:51:57.391Z,97397
2018-08-10T00:53:13.329Z,97394
2018-08-10T00:54:29.240Z,97398
2018-08-10T00:55:45.125Z,97393
2018-08-10T00:58:41.692Z,97396
2018-08-10T00:59:57.546Z,97398
2018-08-10T01:01:13.432Z,97405
2018-08-10T01:02:29.334Z,97407
2018-08-10T01:03:45.191Z,97407
2018-08-10T01:05:01.065Z,97411
2018-08-10T01:06:16.957Z,97412
2018-08-10T01:07:32.858Z,97409
2018-08-10T01:08:48.718Z,97407
2018-08-10T01:10:04.592Z,97413
2018-08-10T01:11:20.520Z,97412
2018-08-10T01:12:36.455Z,97414
2018-08-10T01:13:52.316Z,97417
2018-08-10T01:15:08.184Z,97414
2018-08-10T01:16:24.043Z,97422
2018-08-10T01:17:39.974Z,97419
2018-08-10T01:18:55.910Z,97422
2018-08-10T01:20:11.827Z,97416
2018-08-10T01:21:27.761Z,97424
2018-08-10T01:22:43.735Z,97420
2018-08-10T01:23:59.617Z,97420
2018-08-10T01:25:15.509Z,97419
2018-08-10T01:26:31.378Z,97423
2018-08-10T01:27:47.362Z,97424
2018-08-10T01:29:03.333Z,97428
2018-08-10T01:30:20.171Z,97429
2018-08-10T01:31:36.156Z,97422
2018-08-10T01:32:53.053Z,97430
2018-08-10T01:34:08.938Z,97434
2018-08-10T01:35:24.943Z,97433
2018-08-10T01:36:40.795Z,97436
2018-08-10T01:37:56.675Z,97439
2018-08-10T01:39:13.117Z,97445
2018-08-10T01:40:29.111Z,97440
2018-08-10T01:41:44.987Z,97441
2018-08-10T01:43:00.897Z,97446
2018-08-10T01:44:16.803Z,97445
2018-08-10T01:45:32.826Z,97447
2018-08-10T01:46:48.702Z,97449
2018-08-10T01:48:04.591Z,97453
2018-08-10T01:49:20.506Z,97457
2018-08-10T01:50:36.408Z,97460
2018-08-10T01:51:52.328Z,97464
2018-08-10T01:53:08.210Z,97468
2018-08-10T01:54:24.146Z,97472
2018-08-10T01:55:40.035Z,97471
2018-08-10T01:56:55.917Z,97475
2018-08-10T01:58:11.782Z,97477
2018-08-10T01:59:27.737Z,97486
2018-08-10T02:00:43.714Z,97483
2018-08-10T02:01:59.579Z,97484
2018-08-10T02:03:15.467Z,97484
2018-08-10T02:04:31.401Z,97487
2018-08-10T02:05:47.306Z,97487
2018-08-10T02:07:03.161Z,97488
2018-08-10T02:08:19.012Z,97489
2018-08-10T02:09:34.894Z,97490
2018-08-10T02:10:50.754Z,97492
2018-08-10T02:12:06.653Z,97495
2018-08-10T02:13:22.553Z,97503
2018-08-10T02:14:38.450Z,97507
2018-08-10T02:15:54.311Z,97508
2018-08-10T02:17:10.194Z,97506
2018-08-10T02:18:26.108Z,97508
2018-08-10T02:19:41.996Z,97513
2018-08-10T02:20:57.907Z,97513
2018-08-10T02:22:13.784Z,97514
2018-08-10T02:23:30.778Z,97508
2018-08-10T02:24:46.672Z,97515
2018-08-10T02:26:02.499Z,97518
2018-08-10T02:27:18.554Z,97531
2018-08-10T02:28:34.372Z,97540
2018-08-10T02:29:50.343Z,97537
2018-08-10T02:31:06.230Z,97545
2018-08-10T02:32:22.111Z,97544
2018-08-10T02:33:37.988Z,97547
2018-08-10T02:34:53.891Z,97547
2018-08-10T02:36:09.761Z,97548
2018-08-10T02:37:25.633Z,97552
2018-08-10T02:38:41.515Z,97547
2018-08-10T02:39:57.407Z,97556
2018-08-10T02:41:13.258Z,97555
2018-08-10T02:42:29.138Z,97560
2018-08-10T02:43:44.997Z,97559
2018-08-10T02:45:00.904Z,97568
2018-08-10T02:46:16.741Z,97563
2018-08-10T02:47:32.626Z,97564
2018-08-10T02:48:48.520Z,97563
2018-08-10T02:50:04.373Z,97575
2018-08-10T02:51:20.268Z,97565
2018-08-10T02:52:36.214Z,97570
2018-08-10T02:53:52.187Z,97569
2018-08-10T02:55:08.040Z,97573
2018-08-10T02:56:23.901Z,97572
2018-08-10T02:57:39.803Z,97578
2018-08-10T02:58:55.690Z,97576
2018-08-10T03:00:11.581Z,97594
2018-08-10T03:01:27.489Z,97580
2018-08-10T03:02:43.370Z,97583
2018-08-10T03:03:59.274Z,97574
2018-08-10T03:05:15.156Z,97590
2018-08-10T03:06:31.077Z,97590
2018-08-10T03:07:46.943Z,97586
2018-08-10T03:09:02.814Z,97593
2018-08-10T03:10:18.680Z,97595
2018-08-10T03:11:34.555Z,97596
2018-08-10T03:12:50.439Z,97592
2018-08-10T03:14:06.338Z,97588
2018-08-10T03:15:22.439Z,97591
2018-08-10T03:16:38.307Z,97590
2018-08-10T03:17:54.174Z,97596
2018-08-10T03:19:10.042Z,97600
2018-08-10T03:20:25.892Z,97600
2018-08-10T03:21:41.772Z,97603
2018-08-10T03:22:57.667Z,97600
2018-08-10T03:24:13.517Z,97597
2018-08-10T03:25:29.412Z,97597
2018-08-10T03:26:45.286Z,97613
2018-08-10T03:28:01.150Z,97608
2018-08-10T03:29:17.028Z,97609
2018-08-10T03:30:32.930Z,97613
2018-08-10T03:31:48.785Z,97612
2018-08-10T03:33:04.677Z,97616
2018-08-10T03:34:20.534Z,97619
2018-08-10T03:35:36.408Z,97620
2018-08-10T03:36:52.259Z,97622
2018-08-10T03:38:08.208Z,97621
2018-08-10T03:39:24.108Z,97623
2018-08-10T03:40:39.969Z,97627
2018-08-10T03:41:55.859Z,97646
2018-08-10T03:43:11.723Z,97633
2018-08-10T03:46:08.248Z,97637
2018-08-10T03:47:24.116Z,97639
2018-08-10T03:48:39.993Z,97642
2018-08-10T03:49:55.958Z,97655
2018-08-10T03:51:11.802Z,97644
2018-08-10T03:52:27.721Z,97649
2018-08-10T03:53:43.613Z,97650
2018-08-10T03:54:59.541Z,97647
2018-08-10T03:56:15.445Z,97658
2018-08-10T03:57:31.326Z,97659
2018-08-10T03:58:47.215Z,97671
2018-08-10T04:00:03.113Z,97661
2018-08-10T04:01:19.078Z,97666
2018-08-10T04:02:34.956Z,97653
2018-08-10T04:03:51.013Z,97661
2018-08-10T04:05:06.963Z,97670
2018-08-10T04:06:22.882Z,97677
2018-08-10T04:07:38.904Z,97671
2018-08-10T04:08:54.959Z,97674
2018-08-10T04:10:10.897Z,97674
2018-08-10T04:11:26.925Z,97676
2018-08-10T04:12:43.804Z,97680
2018-08-10T04:14:00.756Z,97694
2018-08-10T04:15:16.693Z,97691
2018-08-10T04:16:32.554Z,97686
2018-08-10T04:17:48.452Z,97679
2018-08-10T04:19:04.327Z,97687
2018-08-10T04:20:20.223Z,97694
2018-08-10T04:21:36.110Z,97684
2018-08-10T04:22:52.088Z,97681
2018-08-10T04:24:08.014Z,97691
2018-08-10T04:25:23.917Z,97682
2018-08-10T04:26:39.805Z,97695
2018-08-10T04:27:55.671Z,97691
2018-08-10T04:29:11.550Z,97692
2018-08-10T04:30:27.428Z,97695
2018-08-10T04:31:43.315Z,97703
2018-08-10T04:32:59.197Z,97693
2018-08-10T04:34:15.129Z,97696
2018-08-10T04:35:31.025Z,97702
2018-08-10T04:36:46.893Z,97697
2018-08-10T04:38:02.783Z,97702
2018-08-10T04:39:18.693Z,97703
2018-08-10T04:40:34.585Z,97709
2018-08-10T04:41:50.461Z,97702
2018-08-10T04:43:06.370Z,97716
2018-08-10T04:44:22.307Z,97710
2018-08-10T04:45:38.175Z,97711
2018-08-10T04:46:54.045Z,97718
2018-08-10T04:48:09.969Z,97717
2018-08-10T04:49:25.812Z,97717
2018-08-10T04:50:41.733Z,97722
2018-08-10T04:51:57.661Z,97725
2018-08-10T04:53:13.569Z,97738
2018-08-10T04:54:29.460Z,97735
2018-08-10T04:55:45.325Z,97739
2018-08-10T04:57:01.194Z,97742
2018-08-10T04:58:17.134Z,97734
2018-08-10T04:59:33.044Z,97740
2018-08-10T05:00:48.925Z,97744
2018-08-10T05:02:04.936Z,97740
2018-08-10T05:03:20.851Z,97746
2018-08-10T05:04:36.736Z,97745
2018-08-10T05:05:52.614Z,97741
2018-08-10T05:07:08.680Z,97737
2018-08-10T05:08:25.232Z,97743
2018-08-10T05:09:41.139Z,97741
2018-08-10T05:10:57.130Z,97750
2018-08-10T05:12:13.038Z,97741
2018-08-10T05:13:28.923Z,97743
2018-08-10T05:14:44.804Z,97745
2018-08-10T05:16:00.696Z,97758
2018-08-10T05:17:16.563Z,97764
2018-08-10T05:18:31.663Z,97759
2018-08-10T05:21:28.183Z,97762
2018-08-10T05:22:44.044Z,97764
2018-08-10T05:23:59.973Z,97766
2018-08-10T05:25:15.917Z,97772
2018-08-10T05:26:31.885Z,97779
2018-08-10T05:27:47.796Z,97775
2018-08-10T05:29:03.682Z,97785
2018-08-10T05:30:19.562Z,97784
2018-08-10T05:31:35.483Z,97777
2018-08-10T05:32:51.506Z,97784
2018-08-10T05:34:07.434Z,97785
2018-08-10T05:35:23.290Z,97780
2018-08-10T05:36:39.285Z,97777
2018-08-10T05:37:55.157Z,97784
2018-08-10T05:39:11.033Z,97785
2018-08-10T05:40:26.917Z,97789
2018-08-10T05:41:42.858Z,97797
2018-08-10T05:42:58.740Z,97797
2018-08-10T05:44:14.675Z,97798
2018-08-10T05:45:30.577Z,97800
2018-08-10T05:46:46.507Z,97801
2018-08-10T05:48:02.439Z,97803
2018-08-10T05:49:18.263Z,97801
2018-08-10T05:50:34.139Z,97814
2018-08-10T05:51:50.026Z,97808
2018-08-10T05:53:05.970Z,97812
2018-08-10T05:54:21.874Z,97813
2018-08-10T05:55:37.751Z,97817
2018-08-10T05:56:53.660Z,97813
2018-08-10T05:58:09.584Z,97815
2018-08-10T05:59:25.453Z,97816
2018-08-10T06:00:41.397Z,97816
2018-08-10T06:01:57.282Z,97814
2018-08-10T06:03:13.189Z,97825
2018-08-10T06:04:29.017Z,97825
2018-08-10T06:05:44.950Z,97829
2018-08-10T06:07:00.866Z,97825
2018-08-10T06:08:16.758Z,97825
2018-08-10T06:09:32.617Z,97822
2018-08-10T06:10:48.494Z,97826
2018-08-10T06:12:04.371Z,97818
2018-08-10T06:13:20.367Z,97826
2018-08-10T06:14:36.251Z,97819
2018-08-10T06:15:52.137Z,97827
2018-08-10T06:17:08.040Z,97827
2018-08-10T06:18:24.044Z,97828
2018-08-10T06:19:40.058Z,97830
2018-08-10T06:20:56.791Z,97828
2018-08-10T06:22:12.660Z,97830
2018-08-10T06:23:28.582Z,97825
2018-08-10T06:24:44.550Z,97826
2018-08-10T06:26:00.529Z,97828
2018-08-10T06:27:16.444Z,97829
2018-08-10T06:28:32.386Z,97825
2018-08-10T06:29:48.257Z,97826
2018-08-10T06:31:05.121Z,97832
2018-08-10T06:32:21.078Z,97829
2018-08-10T06:33:37.161Z,97831
2018-08-10T06:34:52.989Z,97830
2018-08-10T06:36:08.884Z,97829
2018-08-10T06:37:24.741Z,97828
2018-08-10T06:38:40.635Z,97827
2018-08-10T06:39:56.555Z,97825
2018-08-10T06:41:12.413Z,97827
2018-08-10T06:42:28.277Z,97832
2018-08-10T06:43:44.286Z,97837
2018-08-10T06:45:00.204Z,97835
2018-08-10T06:46:16.037Z,97834
2018-08-10T06:47:31.957Z,97833
2018-08-10T06:48:47.840Z,97834
2018-08-10T06:50:03.738Z,97836
2018-08-10T06:51:19.812Z,97835
2018-08-10T06:52:35.488Z,97836
2018-08-10T06:53:51.402Z,97832
2018-08-10T06:55:07.456Z,97832
2018-08-10T06:56:23.339Z,97829
2018-08-10T06:57:39.261Z,97833
2018-08-10T06:58:56.131Z,97832
2018-08-10T07:00:11.998Z,97833
2018-08-10T07:01:27.930Z,97835
2018-08-10T07:02:43.769Z,97833
2018-08-10T07:03:59.625Z,97832
2018-08-10T07:05:15.522Z,97830
2018-08-10T07:06:31.495Z,97838
2018-08-10T07:07:47.394Z,97841
2018-08-10T07:09:03.259Z,97842
2018-08-10T07:10:19.146Z,97845
2018-08-10T07:11:34.990Z,97844
2018-08-10T07:12:51.016Z,97844
2018-08-10T07:14:06.914Z,97843
2018-08-10T07:15:22.773Z,97842
2018-08-10T07:16:38.664Z,97843
2018-08-10T07:17:54.549Z,97834
2018-08-10T07:19:10.443Z,97830
2018-08-10T07:20:26.338Z,97833
2018-08-10T07:21:42.212Z,97833
2018-08-10T07:22:58.119Z,97841
2018-08-10T07:24:15.079Z,97843
2018-08-10T07:25:30.951Z,97844
2018-08-10T07:26:46.920Z,97848
2018-08-10T07:28:02.812Z,97853
2018-08-10T07:29:18.747Z,97854
2018-08-10T07:30:34.614Z,97854
2018-08-10T07:31:50.526Z,97855
2018-08-10T07:33:06.412Z,97850
2018-08-10T07:34:22.351Z,97857
2018-08-10T07:35:38.268Z,97859
2018-08-10T07:36:54.198Z,97852
2018-08-10T07:38:10.399Z,97853
2018-08-10T07:39:26.350Z,97849
2018-08-10T07:40:42.537Z,97854
2018-08-10T07:41:58.592Z,97854
2018-08-10T07:43:14.686Z,97858
2018-08-10T07:44:30.892Z,97858
2018-08-10T07:45:46.998Z,97854
2018-08-10T07:47:02.983Z,97854
2018-08-10T07:48:19.132Z,97856
2018-08-10T07:49:35.260Z,97859
2018-08-10T07:50:51.590Z,97862
2018-08-10T07:52:07.790Z,97860
2018-08-10T07:53:23.748Z,97858
2018-08-10T07:54:39.747Z,97856
2018-08-10T07:55:55.703Z,97862
2018-08-10T07:57:11.619Z,97864
2018-08-10T07:58:27.484Z,97858
2018-08-10T07:59:43.412Z,97859
2018-08-10T08:01:00.338Z,97861
2018-08-10T08:02:16.211Z,97859
2018-08-10T08:03:32.703Z,97858
2018-08-10T08:07:45.653Z,97859
2018-08-10T08:09:01.872Z,97862
2018-08-10T08:10:18.031Z,97857
2018-08-10T08:11:34.076Z,97861
2018-08-10T08:12:50.064Z,97859
2018-08-10T08:14:06.277Z,97864
2018-08-10T08:15:22.395Z,97866
2018-08-10T08:16:38.739Z,97866
2018-08-10T08:17:54.987Z,97866
2018-08-10T08:19:10.982Z,97862
2018-08-10T08:20:27.040Z,97871
2018-08-10T08:21:43.052Z,97868
2018-08-10T08:22:59.263Z,97872
2018-08-10T08:24:15.564Z,97877
2018-08-10T08:25:31.688Z,97872
2018-08-10T08:26:47.932Z,97877
2018-08-10T08:28:04.215Z,97876
2018-08-10T08:29:20.342Z,97871
2018-08-10T08:30:36.238Z,97872
2018-08-10T08:31:52.102Z,97868
2018-08-10T08:33:07.976Z,97868
2018-08-10T08:34:23.878Z,97869
2018-08-10T08:35:40.804Z,97867
2018-08-10T08:36:56.763Z,97862
2018-08-10T08:38:12.620Z,97865
2018-08-10T08:39:28.501Z,97871
2018-08-10T08:40:44.376Z,97870
2018-08-10T08:42:00.294Z,97872
2018-08-10T08:43:16.214Z,97874
2018-08-10T08:44:32.092Z,97878
2018-08-10T08:45:48.222Z,97875
2018-08-10T08:47:03.854Z,97882
2018-08-10T08:48:19.722Z,97879
2018-08-10T08:49:35.631Z,97877
2018-08-10T08:50:51.529Z,97876
2018-08-10T08:52:07.410Z,97877
2018-08-10T08:53:23.365Z,97875
2018-08-10T08:54:39.243Z,97875
2018-08-10T08:55:55.202Z,97873
2018-08-10T08:57:11.121Z,97872
2018-08-10T08:58:26.975Z,97873
2018-08-10T08:59:42.856Z,97874
2018-08-10T09:00:58.865Z,97873
2018-08-10T09:02:15.743Z,97864
2018-08-10T09:03:31.670Z,97870
2018-08-10T09:04:47.570Z,97872
2018-08-10T09:06:03.444Z,97873
2018-08-10T09:07:19.437Z,97872
2018-08-10T09:08:35.316Z,97867
2018-08-10T09:09:51.189Z,97869
2018-08-10T09:11:07.101Z,97867
2018-08-10T09:12:22.985Z,97865
2018-08-10T09:13:39.066Z,97865
2018-08-10T09:14:55.009Z,97867
2018-08-10T09:16:10.890Z,97864
2018-08-10T09:17:26.844Z,97866
2018-08-10T09:18:42.695Z,97867
2018-08-10T09:19:58.573Z,97862
2018-08-10T09:21:14.464Z,97863
2018-08-10T09:22:30.353Z,97861
2018-08-10T09:23:46.226Z,97860
2018-08-10T09:25:02.109Z,97864
2018-08-10T09:26:18.058Z,97866
2018-08-10T09:27:33.921Z,97866
2018-08-10T09:28:49.818Z,97866
2018-08-10T09:30:05.756Z,97861
2018-08-10T09:31:21.642Z,97863
2018-08-10T09:32:37.559Z,97860
2018-08-10T09:33:53.492Z,97862
2018-08-10T09:35:09.393Z,97867
2018-08-10T09:36:25.296Z,97865
2018-08-10T09:37:41.209Z,97875
2018-08-10T09:38:57.115Z,97875
2018-08-10T09:40:13.005Z,97868
2018-08-10T09:41:28.933Z,97869
2018-08-10T09:42:44.882Z,97869
2018-08-10T09:44:00.828Z,97866
2018-08-10T09:45:16.766Z,97861
2018-08-10T09:46:32.635Z,97862
2018-08-10T09:47:48.545Z,97859
2018-08-10T09:49:04.445Z,97863
2018-08-10T09:50:20.426Z,97870
2018-08-10T09:51:36.311Z,97865
2018-08-10T09:52:52.231Z,97865
2018-08-10T09:54:08.108Z,97859
2018-08-10T09:55:24.036Z,97863
2018-08-10T09:56:40.083Z,97859
2018-08-10T09:57:56.014Z,97857
2018-08-10T09:59:11.967Z,97857
2018-08-10T10:00:27.973Z,97853
2018-08-10T10:01:43.886Z,97854
2018-08-10T10:02:59.800Z,97850
2018-08-10T10:04:15.671Z,97843
2018-08-10T10:05:31.632Z,97845
2018-08-10T10:06:47.576Z,97843
2018-08-10T10:08:04.465Z,97845
2018-08-10T10:09:21.365Z,97844
2018-08-10T10:10:38.250Z,97845
2018-08-10T10:11:54.201Z,97838
2018-08-10T10:13:10.142Z,97839
2018-08-10T10:14:26.076Z,97842
2018-08-10T10:15:41.984Z,97844
2018-08-10T10:16:57.954Z,97841
2018-08-10T10:18:13.929Z,97833
2018-08-10T10:19:29.942Z,97841
2018-08-10T10:20:45.888Z,97838
2018-08-10T10:22:01.835Z,97840
2018-08-10T10:23:17.750Z,97838
2018-08-10T10:24:33.698Z,97837
2018-08-10T10:25:49.612Z,97829
2018-08-10T10:27:05.564Z,97835
2018-08-10T10:28:21.414Z,97833
2018-08-10T10:29:37.535Z,97836
2018-08-10T10:30:53.565Z,97831
2018-08-10T10:32:09.502Z,97832
2018-08-10T10:33:25.387Z,97832
2018-08-10T10:34:41.303Z,97833
2018-08-10T10:35:57.216Z,97834
2018-08-10T10:37:13.112Z,97833
2018-08-10T10:38:29.048Z,97829
2018-08-10T10:39:44.947Z,97830
2018-08-10T10:41:00.853Z,97831
2018-08-10T10:42:16.738Z,97824
2018-08-10T10:43:32.616Z,97825
2018-08-10T10:44:48.544Z,97822
2018-08-10T10:46:04.456Z,97817
2018-08-10T10:47:20.404Z,97820
2018-08-10T10:48:36.281Z,97819
2018-08-10T10:49:52.133Z,97818
2018-08-10T10:51:08.049Z,97818
2018-08-10T10:52:24.051Z,97819
2018-08-10T10:53:39.990Z,97822
2018-08-10T10:54:55.885Z,97818
2018-08-10T10:56:11.816Z,97822
2018-08-10T10:57:27.657Z,97819
2018-08-10T10:58:43.567Z,97820
2018-08-10T10:59:59.494Z,97823
2018-08-10T11:01:15.416Z,97822
2018-08-10T11:02:31.306Z,97822
2018-08-10T11:03:47.208Z,97824
2018-08-10T11:05:03.122Z,97821
2018-08-10T11:06:19.095Z,97819
2018-08-10T11:07:34.939Z,97817
2018-08-10T11:08:50.866Z,97814
2018-08-10T11:10:06.838Z,97811
2018-08-10T11:11:22.801Z,97815
2018-08-10T11:12:38.672Z,97816
2018-08-10T11:13:54.554Z,97814
2018-08-10T11:15:10.443Z,97815
2018-08-10T11:16:26.336Z,97814
2018-08-10T11:17:42.281Z,97813
2018-08-10T11:18:58.177Z,97816
2018-08-10T11:20:14.097Z,97814
2018-08-10T11:21:30.031Z,97814
2018-08-10T11:22:45.908Z,97812
2018-08-10T11:24:01.855Z,97814
2018-08-10T11:25:17.873Z,97808
2018-08-10T11:26:33.659Z,97815
2018-08-10T11:27:49.578Z,97812
2018-08-10T11:29:05.467Z,97817
2018-08-10T11:30:21.461Z,97804
2018-08-10T11:31:37.395Z,97809
2018-08-10T11:32:53.285Z,97808
2018-08-10T11:34:09.226Z,97814
2018-08-10T11:35:25.104Z,97810
2018-08-10T11:36:41.026Z,97814
2018-08-10T11:37:56.912Z,97810
2018-08-10T11:39:12.831Z,97802
2018-08-10T11:40:28.728Z,97807
2018-08-10T11:41:44.634Z,97808
2018-08-10T11:45:57.388Z,97796
2018-08-10T11:47:13.384Z,97803
2018-08-10T11:48:29.319Z,97797
2018-08-10T11:49:45.213Z,97798
2018-08-10T11:51:01.100Z,97797
2018-08-10T11:52:17.001Z,97796
2018-08-10T11:53:32.908Z,97793
2018-08-10T11:54:48.838Z,97795
2018-08-10T11:56:04.734Z,97796
2018-08-10T11:57:20.624Z,97795
2018-08-10T11:58:36.612Z,97792
2018-08-10T11:59:52.562Z,97795
2018-08-10T12:01:08.400Z,97795
2018-08-10T12:02:24.309Z,97792
2018-08-10T12:03:40.245Z,97786
2018-08-10T12:04:56.183Z,97788
2018-08-10T12:06:12.223Z,97790
2018-08-10T12:07:28.123Z,97790
2018-08-10T12:08:44.152Z,97785
2018-08-10T12:10:00.051Z,97792
2018-08-10T12:11:15.947Z,97783
2018-08-10T12:12:31.946Z,97787
2018-08-10T12:13:47.830Z,97793
2018-08-10T12:15:03.742Z,97787
2018-08-10T12:16:19.631Z,97785
2018-08-10T12:17:35.605Z,97784
2018-08-10T12:18:51.571Z,97782
2018-08-10T12:20:07.502Z,97779
2018-08-10T12:21:23.431Z,97780
2018-08-10T12:22:39.307Z,97780
2018-08-10T12:23:55.235Z,97781
2018-08-10T12:25:11.170Z,97774
2018-08-10T12:26:27.073Z,97776
2018-08-10T12:27:43.032Z,97777
2018-08-10T12:28:59.926Z,97774
2018-08-10T12:30:16.972Z,97777
2018-08-10T12:31:32.779Z,97771
2018-08-10T12:32:48.705Z,97769
2018-08-10T12:34:04.648Z,97769
2018-08-10T12:35:20.598Z,97764
2018-08-10T12:36:36.482Z,97772
2018-08-10T12:37:52.381Z,97771
2018-08-10T12:39:08.317Z,97770
2018-08-10T12:40:24.242Z,97767
2018-08-10T12:41:40.202Z,97777
2018-08-10T12:42:56.077Z,97767
2018-08-10T12:44:11.983Z,97769
2018-08-10T12:45:27.874Z,97766
2018-08-10T12:46:43.821Z,97764
2018-08-10T12:47:59.718Z,97766
2018-08-10T12:49:15.640Z,97767
2018-08-10T12:50:31.624Z,97763
2018-08-10T12:51:47.467Z,97765
2018-08-10T12:53:03.461Z,97764
2018-08-10T12:54:19.337Z,97762
2018-08-10T12:55:35.235Z,97764
2018-08-10T12:56:52.171Z,97765
2018-08-10T12:58:08.141Z,97771
2018-08-10T12:59:24.076Z,97772
2018-08-10T13:00:39.977Z,97766
2018-08-10T13:01:55.972Z,97764
2018-08-10T13:03:11.903Z,97764
2018-08-10T13:04:27.805Z,97762
2018-08-10T13:05:43.741Z,97755
2018-08-10T13:06:59.675Z,97757
2018-08-10T13:08:15.624Z,97757
2018-08-10T13:09:31.526Z,97758
2018-08-10T13:10:47.457Z,97752
2018-08-10T13:12:03.353Z,97749
2018-08-10T13:13:19.297Z,97744
2018-08-10T13:14:35.268Z,97754
2018-08-10T13:15:51.193Z,97749
2018-08-10T13:17:07.168Z,97750
2018-08-10T13:18:23.120Z,97751
2018-08-10T13:19:38.989Z,97745
2018-08-10T13:20:54.923Z,97747
2018-08-10T13:22:10.824Z,97745
2018-08-10T13:23:26.742Z,97744
2018-08-10T13:27:39.291Z,97743
2018-08-10T13:28:55.203Z,97750
2018-08-10T13:30:11.117Z,97732
2018-08-10T13:31:27.035Z,97739
2018-08-10T13:32:43.043Z,97739
2018-08-10T13:33:59.087Z,97743
2018-08-10T13:35:15.053Z,97731
2018-08-10T13:36:30.994Z,97726
2018-08-10T13:37:46.920Z,97733
2018-08-10T13:39:02.822Z,97732
2018-08-10T13:40:18.763Z,97735
2018-08-10T13:41:34.776Z,97732
2018-08-10T13:42:50.704Z,97733
2018-08-10T13:44:06.663Z,97737
2018-08-10T13:45:22.612Z,97731
2018-08-10T13:46:38.591Z,97737
2018-08-10T13:47:54.528Z,97730
2018-08-10T13:49:10.492Z,97735
2018-08-10T13:50:26.422Z,97736
2018-08-10T13:51:42.384Z,97729
2018-08-10T13:52:58.312Z,97726
2018-08-10T13:54:14.234Z,97726
2018-08-10T13:55:30.215Z,97728
2018-08-10T13:56:46.153Z,97726
2018-08-10T13:58:02.090Z,97726
2018-08-10T13:59:18.015Z,97726
2018-08-10T14:00:33.994Z,97727
2018-08-10T14:01:49.919Z,97724
2018-08-10T14:03:05.904Z,97721
2018-08-10T14:04:21.942Z,97718
2018-08-10T14:05:37.912Z,97720
2018-08-10T14:06:53.865Z,97711
2018-08-10T14:08:09.871Z,97712
2018-08-10T14:09:25.806Z,97709
2018-08-10T14:10:41.762Z,97710
2018-08-10T14:11:57.749Z,97715
2018-08-10T14:13:13.739Z,97709
2018-08-10T14:14:29.708Z,97713
2018-08-10T14:15:45.659Z,97713
2018-08-10T14:17:01.627Z,97715
2018-08-10T14:18:17.536Z,97713
2018-08-10T14:19:33.500Z,97706
2018-08-10T14:20:49.441Z,97709
2018-08-10T14:22:05.394Z,97709
2018-08-10T14:23:21.384Z,97707
2018-08-10T14:24:37.432Z,97704
2018-08-10T14:25:53.373Z,97700
2018-08-10T14:27:09.395Z,97703
2018-08-10T14:28:25.454Z,97699
2018-08-10T14:29:41.324Z,97700
2018-08-10T14:30:57.288Z,97702
2018-08-10T14:32:13.288Z,97699
2018-08-10T14:33:29.413Z,97701
2018-08-10T14:34:45.279Z,97699
2018-08-10T14:36:01.221Z,97694
2018-08-10T14:37:17.139Z,97689
2018-08-10T14:38:33.156Z,97690
2018-08-10T14:39:49.108Z,97686
2018-08-10T14:41:05.027Z,97686
2018-08-10T14:42:20.984Z,97685
2018-08-10T14:43:36.929Z,97687
2018-08-10T14:44:52.923Z,97686
2018-08-10T14:46:08.876Z,97683
2018-08-10T14:47:24.903Z,97682
2018-08-10T14:48:40.826Z,97681
2018-08-10T14:49:56.870Z,97678
2018-08-10T14:51:12.852Z,97678
2018-08-10T14:52:28.787Z,97678
2018-08-10T14:53:44.794Z,97675
2018-08-10T14:55:00.658Z,97676
2018-08-10T14:56:16.681Z,97673
2018-08-10T14:57:32.555Z,97673
2018-08-10T14:58:48.474Z,97673
2018-08-10T15:00:04.439Z,97673
2018-08-10T15:01:20.439Z,97675
2018-08-10T15:02:36.513Z,97671
2018-08-10T15:03:52.505Z,97669
2018-08-10T15:05:08.494Z,97667
2018-08-10T15:06:24.640Z,97667
2018-08-10T15:07:40.693Z,97666
2018-08-10T15:08:56.745Z,97661
2018-08-10T15:10:12.709Z,97664
2018-08-10T15:11:28.695Z,97663
2018-08-10T15:12:45.045Z,97660
2018-08-10T15:14:00.618Z,97661
2018-08-10T15:15:16.654Z,97666
2018-08-10T15:16:32.609Z,97656
2018-08-10T15:17:48.608Z,97652
2018-08-10T15:19:04.551Z,97648
2018-08-10T15:20:20.538Z,97649
2018-08-10T15:21:36.426Z,97653
2018-08-10T15:22:52.341Z,97649
2018-08-10T15:24:08.374Z,97645
2018-08-10T15:25:24.315Z,97649
2018-08-10T15:26:40.306Z,97649
2018-08-10T15:27:56.307Z,97643
2018-08-10T15:29:12.262Z,97648
2018-08-10T15:30:28.195Z,97645
2018-08-10T15:31:44.174Z,97652
2018-08-10T15:33:00.138Z,97644
2018-08-10T15:34:16.051Z,97643
2018-08-10T15:35:31.979Z,97642
2018-08-10T15:36:47.945Z,97641
2018-08-10T15:38:03.860Z,97644
2018-08-10T15:39:19.845Z,97642
2018-08-10T15:40:35.747Z,97643
2018-08-10T15:41:51.730Z,97642
2018-08-10T15:43:07.626Z,97640
2018-08-10T15:44:23.577Z,97640
2018-08-10T15:45:39.435Z,97638
2018-08-10T15:46:55.427Z,97637
2018-08-10T15:48:11.449Z,97637
2018-08-10T15:49:27.423Z,97635
2018-08-10T15:50:43.335Z,97638
2018-08-10T15:51:59.317Z,97635
2018-08-10T15:53:15.338Z,97642
2018-08-10T15:54:31.343Z,97638
2018-08-10T15:55:47.237Z,97638
2018-08-10T15:57:03.217Z,97637
2018-08-10T15:58:19.415Z,97635
2018-08-10T15:59:35.330Z,97637
2018-08-10T16:00:51.317Z,97634
2018-08-10T16:02:07.300Z,97637
2018-08-10T16:03:23.278Z,97633
2018-08-10T16:04:39.269Z,97635
2018-08-10T16:05:55.202Z,97640
2018-08-10T16:07:11.179Z,97637
2018-08-10T16:08:27.294Z,97637
2018-08-10T16:09:43.335Z,97634
2018-08-10T16:10:59.368Z,97638
2018-08-10T16:12:15.424Z,97635
2018-08-10T16:13:31.361Z,97638
2018-08-10T16:14:47.274Z,97634
2018-08-10T16:16:03.187Z,97637
2018-08-10T16:17:19.201Z,97632
2018-08-10T16:18:35.176Z,97634
2018-08-10T16:19:51.145Z,97628
2018-08-10T16:21:07.115Z,97633
2018-08-10T16:22:22.971Z,97628
2018-08-10T16:23:38.981Z,97630
2018-08-10T16:24:54.962Z,97625
2018-08-10T16:26:10.857Z,97626
2018-08-10T16:27:26.929Z,97625
2018-08-10T16:28:42.936Z,97624
2018-08-10T16:29:58.915Z,97627
2018-08-10T16:31:14.868Z,97626